sensor_id;sensor_type;location;lat;lon;timestamp;pressure;altitude;pressure_sealevel;temperature;humidity
54924;BME280;40825;52.270;20.984;2022-07-03T00:00:20;101296.43;;;21.14;64.98
54924;BME280;40825;52.270;20.984;2022-07-03T00:00:57;101298.07;;;21.09;64.95
54924;BME280;40825;52.270;20.984;2022-07-03T00:01:18;101297.36;;;21.07;65.21
54924;BME280;40825;52.270;20.984;2022-07-03T00:01:40;101299.06;;;21.08;65.22
54924;BME280;40825;52.270;20.984;2022-07-03T00:02:02;101301.61;;;21.08;65.42
54924;BME280;40825;52.270;20.984;2022-07-03T00:02:24;101298.58;;;21.08;65.29
54924;BME280;40825;52.270;20.984;2022-07-03T00:02:45;101299.84;;;21.08;65.16
54924;BME280;40825;52.270;20.984;2022-07-03T00:03:07;101297.19;;;21.09;65.31
54924;BME280;40825;52.270;20.984;2022-07-03T00:03:29;101300.56;;;21.10;65.13
54924;BME280;40825;52.270;20.984;2022-07-03T00:03:50;101295.28;;;21.11;65.36
54924;BME280;40825;52.270;20.984;2022-07-03T00:04:12;101299.26;;;21.12;65.19
54924;BME280;40825;52.270;20.984;2022-07-03T00:04:33;101293.66;;;21.12;65.17
54924;BME280;40825;52.270;20.984;2022-07-03T00:04:55;101295.83;;;21.12;65.18
54924;BME280;40825;52.270;20.984;2022-07-03T00:05:17;101295.95;;;21.12;65.04
54924;BME280;40825;52.270;20.984;2022-07-03T00:05:39;101297.02;;;21.11;64.96
54924;BME280;40825;52.270;20.984;2022-07-03T00:06:00;101298.74;;;21.11;65.00
54924;BME280;40825;52.270;20.984;2022-07-03T00:06:22;101294.34;;;21.10;64.99
54924;BME280;40825;52.270;20.984;2022-07-03T00:06:44;101290.96;;;21.10;64.99
54924;BME280;40825;52.270;20.984;2022-07-03T00:07:05;101295.22;;;21.10;65.16
54924;BME280;40825;52.270;20.984;2022-07-03T00:07:27;101297.88;;;21.11;65.02
54924;BME280;40825;52.270;20.984;2022-07-03T00:07:49;101297.91;;;21.12;65.09
54924;BME280;40825;52.270;20.984;2022-07-03T00:08:10;101289.46;;;21.11;65.04
54924;BME280;40825;52.270;20.984;2022-07-03T00:08:32;101293.11;;;21.11;65.07
54924;BME280;40825;52.270;20.984;2022-07-03T00:08:53;101293.22;;;21.11;65.24
54924;BME280;40825;52.270;20.984;2022-07-03T00:09:15;101293.73;;;21.10;65.09
54924;BME280;40825;52.270;20.984;2022-07-03T00:09:44;101295.27;;;21.11;65.15
54924;BME280;40825;52.270;20.984;2022-07-03T00:10:07;101294.42;;;21.09;65.16
54924;BME280;40825;52.270;20.984;2022-07-03T00:10:29;101297.11;;;21.07;65.21
54924;BME280;40825;52.270;20.984;2022-07-03T00:10:51;101300.40;;;21.07;65.29
54924;BME280;40825;52.270;20.984;2022-07-03T00:11:12;101294.38;;;21.06;65.35
54924;BME280;40825;52.270;20.984;2022-07-03T00:11:34;101295.40;;;21.07;65.26
54924;BME280;40825;52.270;20.984;2022-07-03T00:11:56;101298.55;;;21.06;65.32
54924;BME280;40825;52.270;20.984;2022-07-03T00:12:17;101298.05;;;21.06;65.33
54924;BME280;40825;52.270;20.984;2022-07-03T00:12:39;101293.81;;;21.05;65.43
54924;BME280;40825;52.270;20.984;2022-07-03T00:13:01;101295.36;;;21.05;65.33
54924;BME280;40825;52.270;20.984;2022-07-03T00:13:23;101295.16;;;21.05;65.43
54924;BME280;40825;52.270;20.984;2022-07-03T00:13:44;101296.06;;;21.05;65.41
54924;BME280;40825;52.270;20.984;2022-07-03T00:14:06;101295.15;;;21.05;65.32
54924;BME280;40825;52.270;20.984;2022-07-03T00:14:27;101293.16;;;21.05;65.47
54924;BME280;40825;52.270;20.984;2022-07-03T00:14:49;101287.55;;;21.05;65.48
54924;BME280;40825;52.270;20.984;2022-07-03T00:15:12;101291.96;;;21.06;65.33
54924;BME280;40825;52.270;20.984;2022-07-03T00:15:34;101294.79;;;21.06;65.21
54924;BME280;40825;52.270;20.984;2022-07-03T00:15:55;101290.83;;;21.06;65.21
54924;BME280;40825;52.270;20.984;2022-07-03T00:16:17;101287.80;;;21.07;65.20
54924;BME280;40825;52.270;20.984;2022-07-03T00:16:39;101289.34;;;21.07;65.02
54924;BME280;40825;52.270;20.984;2022-07-03T00:17:00;101286.45;;;21.07;65.03
54924;BME280;40825;52.270;20.984;2022-07-03T00:17:22;101288.54;;;21.08;65.03
54924;BME280;40825;52.270;20.984;2022-07-03T00:17:43;101288.38;;;21.09;64.91
54924;BME280;40825;52.270;20.984;2022-07-03T00:18:05;101288.27;;;21.08;65.01
54924;BME280;40825;52.270;20.984;2022-07-03T00:18:27;101291.03;;;21.08;64.99
54924;BME280;40825;52.270;20.984;2022-07-03T00:18:48;101288.27;;;21.08;65.03
54924;BME280;40825;52.270;20.984;2022-07-03T00:19:10;101283.07;;;21.09;65.13
54924;BME280;40825;52.270;20.984;2022-07-03T00:19:31;101285.27;;;21.10;65.16
54924;BME280;40825;52.270;20.984;2022-07-03T00:19:54;101287.50;;;21.10;65.20
54924;BME280;40825;52.270;20.984;2022-07-03T00:20:16;101286.83;;;21.09;65.15
54924;BME280;40825;52.270;20.984;2022-07-03T00:20:45;101286.42;;;21.08;65.16
54924;BME280;40825;52.270;20.984;2022-07-03T00:21:08;101290.86;;;21.08;65.27
54924;BME280;40825;52.270;20.984;2022-07-03T00:21:57;101290.55;;;21.05;65.20
54924;BME280;40825;52.270;20.984;2022-07-03T00:22:25;101286.55;;;20.96;65.27
54924;BME280;40825;52.270;20.984;2022-07-03T00:22:47;101292.48;;;20.94;65.46
54924;BME280;40825;52.270;20.984;2022-07-03T00:23:17;101288.91;;;20.93;65.36
54924;BME280;40825;52.270;20.984;2022-07-03T00:23:46;101288.59;;;20.92;65.48
54924;BME280;40825;52.270;20.984;2022-07-03T00:24:13;101290.59;;;20.92;65.49
54924;BME280;40825;52.270;20.984;2022-07-03T00:25:00;101289.14;;;20.90;65.45
54924;BME280;40825;52.270;20.984;2022-07-03T00:25:23;101290.93;;;20.82;65.67
54924;BME280;40825;52.270;20.984;2022-07-03T00:25:44;101290.15;;;20.81;65.89
54924;BME280;40825;52.270;20.984;2022-07-03T00:26:07;101290.02;;;20.82;65.98
54924;BME280;40825;52.270;20.984;2022-07-03T00:26:32;101290.55;;;20.83;65.91
54924;BME280;40825;52.270;20.984;2022-07-03T00:26:55;101294.86;;;20.83;65.94
54924;BME280;40825;52.270;20.984;2022-07-03T00:27:24;101293.39;;;20.83;65.95
54924;BME280;40825;52.270;20.984;2022-07-03T00:27:49;101287.77;;;20.82;66.04
54924;BME280;40825;52.270;20.984;2022-07-03T00:28:11;101290.36;;;20.82;66.06
54924;BME280;40825;52.270;20.984;2022-07-03T00:28:32;101289.43;;;20.82;66.02
54924;BME280;40825;52.270;20.984;2022-07-03T00:28:56;101290.10;;;20.82;66.12
54924;BME280;40825;52.270;20.984;2022-07-03T00:29:23;101289.56;;;20.81;65.94
54924;BME280;40825;52.270;20.984;2022-07-03T00:29:49;101287.38;;;20.78;66.01
54924;BME280;40825;52.270;20.984;2022-07-03T00:30:11;101287.52;;;20.77;66.27
54924;BME280;40825;52.270;20.984;2022-07-03T00:30:33;101286.45;;;20.78;66.20
54924;BME280;40825;52.270;20.984;2022-07-03T00:30:57;101289.51;;;20.79;66.28
54924;BME280;40825;52.270;20.984;2022-07-03T00:31:18;101289.70;;;20.80;66.21
54924;BME280;40825;52.270;20.984;2022-07-03T00:31:40;101289.37;;;20.80;66.28
54924;BME280;40825;52.270;20.984;2022-07-03T00:32:03;101289.81;;;20.80;66.30
54924;BME280;40825;52.270;20.984;2022-07-03T00:32:26;101287.06;;;20.81;66.11
54924;BME280;40825;52.270;20.984;2022-07-03T00:32:47;101287.35;;;20.81;66.05
54924;BME280;40825;52.270;20.984;2022-07-03T00:33:10;101289.27;;;20.82;66.16
54924;BME280;40825;52.270;20.984;2022-07-03T00:33:33;101286.46;;;20.82;66.24
54924;BME280;40825;52.270;20.984;2022-07-03T00:34:01;101285.20;;;20.82;66.28
54924;BME280;40825;52.270;20.984;2022-07-03T00:34:24;101287.84;;;20.83;66.30
54924;BME280;40825;52.270;20.984;2022-07-03T00:34:50;101287.96;;;20.82;66.28
54924;BME280;40825;52.270;20.984;2022-07-03T00:35:16;101287.89;;;20.81;66.33
54924;BME280;40825;52.270;20.984;2022-07-03T00:35:39;101288.56;;;20.80;66.40
54924;BME280;40825;52.270;20.984;2022-07-03T00:36:02;101291.38;;;20.79;66.38
54924;BME280;40825;52.270;20.984;2022-07-03T00:36:26;101290.86;;;20.80;66.50
54924;BME280;40825;52.270;20.984;2022-07-03T00:36:48;101291.27;;;20.81;66.28
54924;BME280;40825;52.270;20.984;2022-07-03T00:37:10;101287.41;;;20.82;66.42
54924;BME280;40825;52.270;20.984;2022-07-03T00:37:32;101289.18;;;20.82;66.39
54924;BME280;40825;52.270;20.984;2022-07-03T00:37:53;101294.14;;;20.83;66.52
54924;BME280;40825;52.270;20.984;2022-07-03T00:38:15;101294.51;;;20.84;66.46
54924;BME280;40825;52.270;20.984;2022-07-03T00:38:38;101291.83;;;20.84;66.45
54924;BME280;40825;52.270;20.984;2022-07-03T00:38:59;101288.59;;;20.85;66.47
54924;BME280;40825;52.270;20.984;2022-07-03T00:39:21;101286.94;;;20.86;66.37
54924;BME280;40825;52.270;20.984;2022-07-03T00:39:44;101291.20;;;20.87;66.33
54924;BME280;40825;52.270;20.984;2022-07-03T00:40:06;101290.64;;;20.87;66.38
54924;BME280;40825;52.270;20.984;2022-07-03T00:40:31;101291.27;;;20.88;66.37
54924;BME280;40825;52.270;20.984;2022-07-03T00:40:53;101290.58;;;20.88;66.42
54924;BME280;40825;52.270;20.984;2022-07-03T00:41:27;101289.19;;;20.90;66.50
54924;BME280;40825;52.270;20.984;2022-07-03T00:41:59;101290.38;;;20.87;66.22
54924;BME280;40825;52.270;20.984;2022-07-03T00:42:21;101291.13;;;20.84;66.37
54924;BME280;40825;52.270;20.984;2022-07-03T00:42:44;101286.63;;;20.82;66.43
54924;BME280;40825;52.270;20.984;2022-07-03T00:43:11;101287.91;;;20.83;66.43
54924;BME280;40825;52.270;20.984;2022-07-03T00:43:36;101286.29;;;20.83;66.40
54924;BME280;40825;52.270;20.984;2022-07-03T00:43:58;101286.52;;;20.84;66.42
54924;BME280;40825;52.270;20.984;2022-07-03T00:44:20;101288.51;;;20.85;66.48
54924;BME280;40825;52.270;20.984;2022-07-03T00:44:51;101288.95;;;20.86;66.49
54924;BME280;40825;52.270;20.984;2022-07-03T00:45:15;101288.63;;;20.86;66.40
54924;BME280;40825;52.270;20.984;2022-07-03T00:45:45;101289.64;;;20.85;66.44
54924;BME280;40825;52.270;20.984;2022-07-03T00:46:07;101287.11;;;20.84;66.46
54924;BME280;40825;52.270;20.984;2022-07-03T00:46:31;101288.30;;;20.82;66.44
54924;BME280;40825;52.270;20.984;2022-07-03T00:46:55;101289.30;;;20.83;66.59
54924;BME280;40825;52.270;20.984;2022-07-03T00:47:20;101288.53;;;20.84;66.55
54924;BME280;40825;52.270;20.984;2022-07-03T00:47:42;101291.31;;;20.85;66.49
54924;BME280;40825;52.270;20.984;2022-07-03T00:48:06;101289.73;;;20.84;66.34
54924;BME280;40825;52.270;20.984;2022-07-03T00:48:30;101289.33;;;20.86;66.31
54924;BME280;40825;52.270;20.984;2022-07-03T00:48:55;101289.64;;;20.85;66.20
54924;BME280;40825;52.270;20.984;2022-07-03T00:49:18;101290.66;;;20.84;66.27
54924;BME280;40825;52.270;20.984;2022-07-03T00:49:44;101290.09;;;20.84;66.10
54924;BME280;40825;52.270;20.984;2022-07-03T00:50:08;101289.85;;;20.83;66.04
54924;BME280;40825;52.270;20.984;2022-07-03T00:50:34;101287.64;;;20.81;66.11
54924;BME280;40825;52.270;20.984;2022-07-03T00:50:57;101287.98;;;20.80;66.07
54924;BME280;40825;52.270;20.984;2022-07-03T00:51:24;101286.58;;;20.78;66.11
54924;BME280;40825;52.270;20.984;2022-07-03T00:51:51;101286.92;;;20.77;66.03
54924;BME280;40825;52.270;20.984;2022-07-03T00:52:14;101283.69;;;20.77;66.03
54924;BME280;40825;52.270;20.984;2022-07-03T00:52:37;101285.40;;;20.76;66.12
54924;BME280;40825;52.270;20.984;2022-07-03T00:53:01;101282.91;;;20.77;66.10
54924;BME280;40825;52.270;20.984;2022-07-03T00:53:28;101282.80;;;20.77;66.01
54924;BME280;40825;52.270;20.984;2022-07-03T00:53:52;101279.98;;;20.76;65.84
54924;BME280;40825;52.270;20.984;2022-07-03T00:54:16;101282.87;;;20.75;65.90
54924;BME280;40825;52.270;20.984;2022-07-03T00:54:43;101279.27;;;20.74;65.78
54924;BME280;40825;52.270;20.984;2022-07-03T00:55:08;101284.08;;;20.73;65.77
54924;BME280;40825;52.270;20.984;2022-07-03T00:55:36;101283.09;;;20.70;65.62
54924;BME280;40825;52.270;20.984;2022-07-03T00:56:03;101280.23;;;20.69;65.75
54924;BME280;40825;52.270;20.984;2022-07-03T00:56:27;101285.61;;;20.68;65.80
54924;BME280;40825;52.270;20.984;2022-07-03T00:56:51;101280.13;;;20.68;65.78
54924;BME280;40825;52.270;20.984;2022-07-03T00:57:16;101281.30;;;20.68;65.77
54924;BME280;40825;52.270;20.984;2022-07-03T00:57:44;101283.21;;;20.68;65.74
54924;BME280;40825;52.270;20.984;2022-07-03T00:58:06;101279.81;;;20.67;65.72
54924;BME280;40825;52.270;20.984;2022-07-03T00:58:28;101278.45;;;20.66;65.77
54924;BME280;40825;52.270;20.984;2022-07-03T00:58:59;101279.76;;;20.67;65.79
54924;BME280;40825;52.270;20.984;2022-07-03T00:59:21;101279.74;;;20.66;65.82
54924;BME280;40825;52.270;20.984;2022-07-03T00:59:43;101278.44;;;20.64;65.75
54924;BME280;40825;52.270;20.984;2022-07-03T01:00:06;101279.73;;;20.64;65.79
54924;BME280;40825;52.270;20.984;2022-07-03T01:00:28;101280.40;;;20.64;65.94
54924;BME280;40825;52.270;20.984;2022-07-03T01:00:52;101279.35;;;20.65;65.87
54924;BME280;40825;52.270;20.984;2022-07-03T01:01:16;101279.89;;;20.65;65.75
54924;BME280;40825;52.270;20.984;2022-07-03T01:01:40;101276.44;;;20.64;65.77
54924;BME280;40825;52.270;20.984;2022-07-03T01:02:04;101276.64;;;20.65;65.87
54924;BME280;40825;52.270;20.984;2022-07-03T01:02:49;101275.77;;;20.65;65.97
54924;BME280;40825;52.270;20.984;2022-07-03T01:03:17;101274.16;;;20.58;65.91
54924;BME280;40825;52.270;20.984;2022-07-03T01:03:43;101275.51;;;20.56;66.23
54924;BME280;40825;52.270;20.984;2022-07-03T01:05:53;101271.41;;;20.40;66.43
54924;BME280;40825;52.270;20.984;2022-07-03T01:06:39;101268.52;;;20.40;66.73
54924;BME280;40825;52.270;20.984;2022-07-03T01:07:05;101268.03;;;20.40;66.66
54924;BME280;40825;52.270;20.984;2022-07-03T01:07:47;101266.70;;;20.39;66.84
54924;BME280;40825;52.270;20.984;2022-07-03T01:08:59;101271.33;;;20.34;66.90
54924;BME280;40825;52.270;20.984;2022-07-03T01:09:37;101269.93;;;20.33;67.11
54924;BME280;40825;52.270;20.984;2022-07-03T01:10:12;101271.98;;;20.31;66.98
54924;BME280;40825;52.270;20.984;2022-07-03T01:11:17;101272.63;;;20.29;67.09
54924;BME280;40825;52.270;20.984;2022-07-03T01:11:48;101271.31;;;20.22;67.22
54924;BME280;40825;52.270;20.984;2022-07-03T01:12:23;101275.95;;;20.21;67.45
54924;BME280;40825;52.270;20.984;2022-07-03T01:13:00;101268.48;;;20.22;67.43
54924;BME280;40825;52.270;20.984;2022-07-03T01:13:53;101269.45;;;20.19;67.41
54924;BME280;40825;52.270;20.984;2022-07-03T01:14:30;101267.71;;;20.12;67.40
54924;BME280;40825;52.270;20.984;2022-07-03T01:15:00;101272.65;;;20.10;67.56
54924;BME280;40825;52.270;20.984;2022-07-03T01:15:41;101269.85;;;20.10;67.71
54924;BME280;40825;52.270;20.984;2022-07-03T01:16:17;101270.53;;;20.10;67.73
54924;BME280;40825;52.270;20.984;2022-07-03T01:17:25;101269.50;;;20.07;67.85
54924;BME280;40825;52.270;20.984;2022-07-03T01:17:54;101270.89;;;20.02;67.75
54924;BME280;40825;52.270;20.984;2022-07-03T01:18:35;101270.28;;;19.99;67.90
54924;BME280;40825;52.270;20.984;2022-07-03T01:19:04;101268.35;;;19.98;67.92
54924;BME280;40825;52.270;20.984;2022-07-03T01:19:42;101269.66;;;19.96;68.10
54924;BME280;40825;52.270;20.984;2022-07-03T01:20:05;101267.21;;;19.96;68.10
54924;BME280;40825;52.270;20.984;2022-07-03T01:20:28;101267.94;;;19.97;68.33
54924;BME280;40825;52.270;20.984;2022-07-03T01:21:07;101266.52;;;19.99;68.41
54924;BME280;40825;52.270;20.984;2022-07-03T01:22:29;101262.73;;;19.93;68.26
54924;BME280;40825;52.270;20.984;2022-07-03T01:22:55;101265.78;;;19.91;68.58
54924;BME280;40825;52.270;20.984;2022-07-03T01:23:28;101262.06;;;19.92;68.49
54924;BME280;40825;52.270;20.984;2022-07-03T01:25:26;101260.89;;;19.87;68.74
54924;BME280;40825;52.270;20.984;2022-07-03T01:25:49;101260.80;;;19.86;68.81
54924;BME280;40825;52.270;20.984;2022-07-03T01:26:13;101262.70;;;19.88;69.08
54924;BME280;40825;52.270;20.984;2022-07-03T01:26:38;101263.70;;;19.91;69.04
54924;BME280;40825;52.270;20.984;2022-07-03T01:27:10;101261.17;;;19.93;69.21
54924;BME280;40825;52.270;20.984;2022-07-03T01:28:08;101260.70;;;19.94;69.05
54924;BME280;40825;52.270;20.984;2022-07-03T01:28:32;101260.81;;;19.86;68.88
54924;BME280;40825;52.270;20.984;2022-07-03T01:28:54;101260.60;;;19.84;69.18
54924;BME280;40825;52.270;20.984;2022-07-03T01:29:31;101264.33;;;19.86;69.24
54924;BME280;40825;52.270;20.984;2022-07-03T01:30:48;101264.36;;;19.81;69.04
54924;BME280;40825;52.270;20.984;2022-07-03T01:31:09;101263.31;;;19.78;69.12
54924;BME280;40825;52.270;20.984;2022-07-03T01:31:31;101263.84;;;19.74;68.93
54924;BME280;40825;52.270;20.984;2022-07-03T01:31:55;101267.51;;;19.74;69.25
54924;BME280;40825;52.270;20.984;2022-07-03T01:32:23;101262.02;;;19.75;69.28
54924;BME280;40825;52.270;20.984;2022-07-03T01:32:49;101263.31;;;19.77;69.10
54924;BME280;40825;52.270;20.984;2022-07-03T01:33:17;101264.78;;;19.80;69.14
54924;BME280;40825;52.270;20.984;2022-07-03T01:33:39;101265.46;;;19.82;69.17
54924;BME280;40825;52.270;20.984;2022-07-03T01:34:09;101260.41;;;19.83;69.21
54924;BME280;40825;52.270;20.984;2022-07-03T01:34:34;101260.61;;;19.84;69.23
54924;BME280;40825;52.270;20.984;2022-07-03T01:35:02;101259.23;;;19.84;69.12
54924;BME280;40825;52.270;20.984;2022-07-03T01:35:32;101264.01;;;19.79;69.20
54924;BME280;40825;52.270;20.984;2022-07-03T01:36:18;101260.95;;;19.79;69.72
54924;BME280;40825;52.270;20.984;2022-07-03T01:36:43;101257.70;;;19.82;69.55
54924;BME280;40825;52.270;20.984;2022-07-03T01:37:17;101258.67;;;19.82;69.67
54924;BME280;40825;52.270;20.984;2022-07-03T01:37:46;101258.10;;;19.82;69.34
54924;BME280;40825;52.270;20.984;2022-07-03T01:38:10;101256.39;;;19.81;69.55
54924;BME280;40825;52.270;20.984;2022-07-03T01:38:38;101257.77;;;19.83;69.43
54924;BME280;40825;52.270;20.984;2022-07-03T01:39:03;101257.56;;;19.84;69.41
54924;BME280;40825;52.270;20.984;2022-07-03T01:39:27;101256.90;;;19.83;69.35
54924;BME280;40825;52.270;20.984;2022-07-03T01:39:52;101253.10;;;19.86;69.36
54924;BME280;40825;52.270;20.984;2022-07-03T01:40:17;101255.02;;;19.86;69.30
54924;BME280;40825;52.270;20.984;2022-07-03T01:40:40;101256.58;;;19.88;69.29
54924;BME280;40825;52.270;20.984;2022-07-03T01:41:05;101254.51;;;19.90;69.30
54924;BME280;40825;52.270;20.984;2022-07-03T01:41:29;101254.45;;;19.91;69.22
54924;BME280;40825;52.270;20.984;2022-07-03T01:41:53;101254.27;;;19.92;69.03
54924;BME280;40825;52.270;20.984;2022-07-03T01:42:18;101250.02;;;19.92;68.88
54924;BME280;40825;52.270;20.984;2022-07-03T01:42:40;101250.14;;;19.92;68.82
54924;BME280;40825;52.270;20.984;2022-07-03T01:43:11;101251.48;;;19.92;68.80
54924;BME280;40825;52.270;20.984;2022-07-03T01:43:38;101249.82;;;19.91;68.70
54924;BME280;40825;52.270;20.984;2022-07-03T01:44:11;101247.83;;;19.91;68.59
54924;BME280;40825;52.270;20.984;2022-07-03T01:44:38;101254.32;;;19.88;68.62
54924;BME280;40825;52.270;20.984;2022-07-03T01:45:02;101247.84;;;19.87;68.58
54924;BME280;40825;52.270;20.984;2022-07-03T01:45:27;101248.23;;;19.87;68.48
54924;BME280;40825;52.270;20.984;2022-07-03T01:45:53;101246.40;;;19.88;68.56
54924;BME280;40825;52.270;20.984;2022-07-03T01:46:18;101245.60;;;19.89;68.59
54924;BME280;40825;52.270;20.984;2022-07-03T01:46:40;101244.91;;;19.90;68.42
54924;BME280;40825;52.270;20.984;2022-07-03T01:47:07;101245.36;;;19.90;68.33
54924;BME280;40825;52.270;20.984;2022-07-03T01:47:29;101245.07;;;19.91;68.29
54924;BME280;40825;52.270;20.984;2022-07-03T01:47:53;101242.05;;;19.92;68.28
54924;BME280;40825;52.270;20.984;2022-07-03T01:48:18;101243.98;;;19.93;68.23
54924;BME280;40825;52.270;20.984;2022-07-03T01:48:43;101241.13;;;19.95;68.26
54924;BME280;40825;52.270;20.984;2022-07-03T01:49:06;101237.20;;;19.96;68.21
54924;BME280;40825;52.270;20.984;2022-07-03T01:49:31;101237.52;;;19.98;68.22
54924;BME280;40825;52.270;20.984;2022-07-03T01:49:54;101239.05;;;19.99;68.10
54924;BME280;40825;52.270;20.984;2022-07-03T01:50:16;101241.00;;;19.99;68.09
54924;BME280;40825;52.270;20.984;2022-07-03T01:50:39;101241.20;;;20.00;68.00
54924;BME280;40825;52.270;20.984;2022-07-03T01:51:02;101240.72;;;20.01;68.03
54924;BME280;40825;52.270;20.984;2022-07-03T01:51:25;101241.36;;;20.03;67.95
54924;BME280;40825;52.270;20.984;2022-07-03T01:51:49;101242.14;;;20.03;67.95
54924;BME280;40825;52.270;20.984;2022-07-03T01:52:12;101236.35;;;20.04;67.82
54924;BME280;40825;52.270;20.984;2022-07-03T01:52:37;101238.30;;;20.04;67.91
54924;BME280;40825;52.270;20.984;2022-07-03T01:53:02;101240.95;;;20.03;67.67
54924;BME280;40825;52.270;20.984;2022-07-03T01:53:26;101243.83;;;20.02;67.74
54924;BME280;40825;52.270;20.984;2022-07-03T01:53:49;101242.14;;;20.01;67.69
54924;BME280;40825;52.270;20.984;2022-07-03T01:54:11;101239.60;;;20.01;67.63
54924;BME280;40825;52.270;20.984;2022-07-03T01:54:34;101241.88;;;20.02;67.52
54924;BME280;40825;52.270;20.984;2022-07-03T01:55:00;101243.23;;;20.01;67.61
54924;BME280;40825;52.270;20.984;2022-07-03T01:55:23;101239.31;;;20.01;67.56
54924;BME280;40825;52.270;20.984;2022-07-03T01:55:46;101239.05;;;19.99;67.50
54924;BME280;40825;52.270;20.984;2022-07-03T01:56:10;101243.20;;;20.00;67.49
54924;BME280;40825;52.270;20.984;2022-07-03T01:56:32;101239.23;;;20.00;67.45
54924;BME280;40825;52.270;20.984;2022-07-03T01:56:54;101240.94;;;20.01;67.35
54924;BME280;40825;52.270;20.984;2022-07-03T01:57:16;101244.27;;;20.01;67.36
54924;BME280;40825;52.270;20.984;2022-07-03T01:57:56;101243.80;;;20.02;67.28
54924;BME280;40825;52.270;20.984;2022-07-03T01:58:18;101240.05;;;19.99;67.37
54924;BME280;40825;52.270;20.984;2022-07-03T01:58:40;101242.10;;;19.98;67.42
54924;BME280;40825;52.270;20.984;2022-07-03T01:59:02;101240.64;;;19.99;67.39
54924;BME280;40825;52.270;20.984;2022-07-03T01:59:25;101239.69;;;20.01;67.32
54924;BME280;40825;52.270;20.984;2022-07-03T01:59:46;101242.42;;;20.02;67.31
54924;BME280;40825;52.270;20.984;2022-07-03T02:00:09;101240.20;;;20.02;67.35
54924;BME280;40825;52.270;20.984;2022-07-03T02:00:41;101245.75;;;20.02;67.16
54924;BME280;40825;52.270;20.984;2022-07-03T02:01:20;101243.55;;;19.99;67.06
54924;BME280;40825;52.270;20.984;2022-07-03T02:01:52;101245.13;;;19.95;67.33
54924;BME280;40825;52.270;20.984;2022-07-03T02:02:43;101244.41;;;19.89;67.37
54924;BME280;40825;52.270;20.984;2022-07-03T02:03:07;101242.77;;;19.84;67.49
54924;BME280;40825;52.270;20.984;2022-07-03T02:03:34;101244.83;;;19.82;67.65
54924;BME280;40825;52.270;20.984;2022-07-03T02:04:40;101248.55;;;19.84;67.54
54924;BME280;40825;52.270;20.984;2022-07-03T02:05:14;101243.24;;;19.73;67.56
54924;BME280;40825;52.270;20.984;2022-07-03T02:05:48;101241.00;;;19.70;67.72
54924;BME280;40825;52.270;20.984;2022-07-03T02:06:57;101241.33;;;19.71;67.66
54924;BME280;40825;52.270;20.984;2022-07-03T02:08:17;101240.27;;;19.70;67.86
54924;BME280;40825;52.270;20.984;2022-07-03T02:09:12;101236.75;;;19.64;68.09
54924;BME280;40825;52.270;20.984;2022-07-03T02:10:28;101237.00;;;19.65;67.87
54924;BME280;40825;52.270;20.984;2022-07-03T02:11:09;101240.33;;;19.62;67.79
54924;BME280;40825;52.270;20.984;2022-07-03T02:11:39;101238.70;;;19.60;67.71
54924;BME280;40825;52.270;20.984;2022-07-03T02:12:01;101235.81;;;19.57;67.89
54924;BME280;40825;52.270;20.984;2022-07-03T02:12:29;101239.55;;;19.58;67.80
54924;BME280;40825;52.270;20.984;2022-07-03T02:13:02;101242.67;;;19.59;67.68
54924;BME280;40825;52.270;20.984;2022-07-03T02:13:28;101234.99;;;19.57;67.78
54924;BME280;40825;52.270;20.984;2022-07-03T02:14:17;101237.59;;;19.56;67.63
54924;BME280;40825;52.270;20.984;2022-07-03T02:14:40;101238.08;;;19.57;67.54
54924;BME280;40825;52.270;20.984;2022-07-03T02:15:09;101237.10;;;19.57;67.65
54924;BME280;40825;52.270;20.984;2022-07-03T02:15:33;101239.25;;;19.56;67.32
54924;BME280;40825;52.270;20.984;2022-07-03T02:15:58;101240.10;;;19.56;67.29
54924;BME280;40825;52.270;20.984;2022-07-03T02:16:23;101238.23;;;19.55;67.30
54924;BME280;40825;52.270;20.984;2022-07-03T02:17:25;101239.69;;;19.52;67.32
54924;BME280;40825;52.270;20.984;2022-07-03T02:17:51;101243.45;;;19.49;67.54
54924;BME280;40825;52.270;20.984;2022-07-03T02:18:37;101239.39;;;19.49;67.49
54924;BME280;40825;52.270;20.984;2022-07-03T02:19:08;101241.11;;;19.44;67.51
54924;BME280;40825;52.270;20.984;2022-07-03T02:19:43;101243.75;;;19.40;67.57
54924;BME280;40825;52.270;20.984;2022-07-03T02:20:07;101240.73;;;19.39;67.61
54924;BME280;40825;52.270;20.984;2022-07-03T02:20:34;101242.83;;;19.40;67.67
54924;BME280;40825;52.270;20.984;2022-07-03T02:21:25;101239.05;;;19.41;67.34
54924;BME280;40825;52.270;20.984;2022-07-03T02:21:49;101245.14;;;19.37;67.51
54924;BME280;40825;52.270;20.984;2022-07-03T02:22:12;101242.63;;;19.36;67.61
54924;BME280;40825;52.270;20.984;2022-07-03T02:22:40;101244.30;;;19.38;67.52
54924;BME280;40825;52.270;20.984;2022-07-03T02:23:03;101241.03;;;19.39;67.16
54924;BME280;40825;52.270;20.984;2022-07-03T02:23:30;101241.95;;;19.35;67.39
54924;BME280;40825;52.270;20.984;2022-07-03T02:24:19;101242.52;;;19.34;67.35
54924;BME280;40825;52.270;20.984;2022-07-03T02:24:43;101241.52;;;19.29;67.23
54924;BME280;40825;52.270;20.984;2022-07-03T02:25:41;101244.63;;;19.28;67.11
54924;BME280;40825;52.270;20.984;2022-07-03T02:26:05;101245.45;;;19.30;67.09
54924;BME280;40825;52.270;20.984;2022-07-03T02:26:33;101242.41;;;19.30;66.99
54924;BME280;40825;52.270;20.984;2022-07-03T02:27:05;101244.20;;;19.30;66.85